createdAt,value
2022-09-05T00:00:23.075Z,3.72
2022-09-05T00:03:15.480Z,3.75
2022-09-05T00:06:00.011Z,4.20
2022-09-05T00:08:57.649Z,4.13
2022-09-05T00:11:48.248Z,4.18
2022-09-05T00:15:15.395Z,3.72
2022-09-05T00:17:22.544Z,3.65
2022-09-05T00:24:21.561Z,4.20
2022-09-05T00:24:30.241Z,4.20
2022-09-05T00:25:47.630Z,3.97
2022-09-05T00:28:35.080Z,3.65
2022-09-05T00:31:54.134Z,3.70
2022-09-05T00:34:47.294Z,3.72
2022-09-05T00:37:27.538Z,3.78
2022-09-05T00:40:17.800Z,3.63
2022-09-05T00:42:45.543Z,4.60
2022-09-05T00:45:20.810Z,4.18
2022-09-05T00:47:55.336Z,4.47
2022-09-05T00:50:30.905Z,4.53
2022-09-05T00:53:18.574Z,4.10
2022-09-05T00:55:59.946Z,4.43
2022-09-05T00:58:51.137Z,4.45
2022-09-05T01:01:47.152Z,4.43
2022-09-05T01:04:53.582Z,4.00
2022-09-05T01:07:44.122Z,3.60
2022-09-05T01:10:41.449Z,4.05
2022-09-05T01:13:29.552Z,4.32
2022-09-05T01:16:24.141Z,4.23
2022-09-05T01:19:08.599Z,4.25
2022-09-05T01:22:00.345Z,4.10
2022-09-05T01:24:56.141Z,4.72
2022-09-05T01:29:12.921Z,3.50
2022-09-05T01:30:51.023Z,4.43
2022-09-05T01:33:39.166Z,3.42
2022-09-05T01:36:34.831Z,4.07
2022-09-05T01:40:12.551Z,4.43
2022-09-05T01:42:08.320Z,3.65
2022-09-05T01:44:57.190Z,3.92
2022-09-05T01:47:48.315Z,4.05
2022-09-05T01:50:52.629Z,4.57
2022-09-05T01:53:41.812Z,4.00
2022-09-05T01:56:17.382Z,4.38
2022-09-05T01:58:54.720Z,4.10
2022-09-05T02:01:30.066Z,3.97
2022-09-05T02:04:43.774Z,4.25
2022-09-05T02:07:30.237Z,3.80
2022-09-05T02:10:14.718Z,4.10
2022-09-05T02:13:02.604Z,4.18
2022-09-05T02:15:41.440Z,3.78
2022-09-05T02:18:18.377Z,3.85
2022-09-05T02:20:52.704Z,3.83
2022-09-05T02:23:31.001Z,3.72
2022-09-05T02:26:23.371Z,4.18
2022-09-05T02:29:00.684Z,4.18
2022-09-05T02:31:46.773Z,3.47
2022-09-05T02:34:22.919Z,3.80
2022-09-05T02:37:03.287Z,4.53
2022-09-05T02:45:03.113Z,3.78
2022-09-05T02:45:12.665Z,3.70
2022-09-05T02:45:33.916Z,3.80
2022-09-05T02:48:24.472Z,3.88
2022-09-05T02:57:25.576Z,3.60
2022-09-05T02:57:40.449Z,4.50
2022-09-05T02:57:46.009Z,4.50
2022-09-05T03:00:12.158Z,3.80
2022-09-05T03:03:02.313Z,4.35
2022-09-05T03:05:40.996Z,4.15
2022-09-05T03:08:14.086Z,4.20
2022-09-05T03:11:08.588Z,3.50
2022-09-05T03:14:10.136Z,3.83
2022-09-05T03:16:50.572Z,4.05
2022-09-05T03:19:36.049Z,4.38
2022-09-05T03:22:36.746Z,3.72
2022-09-05T03:25:28.341Z,5.05
2022-09-05T03:28:19.165Z,4.35
2022-09-05T03:31:23.100Z,4.15
2022-09-05T03:34:19.013Z,4.10
2022-09-05T03:36:45.514Z,4.28
2022-09-05T03:39:30.974Z,3.92
2022-09-05T03:42:00.531Z,4.25
2022-09-05T03:45:06.775Z,4.43
2022-09-05T03:48:16.507Z,4.60
2022-09-05T03:56:59.822Z,3.78
2022-09-05T03:57:24.358Z,4.75
2022-09-05T03:57:36.949Z,3.67
2022-09-05T04:00:12.041Z,3.92
2022-09-05T04:08:07.949Z,4.55
2022-09-05T04:08:20.894Z,4.43
2022-09-05T04:09:07.520Z,4.07
2022-09-05T04:11:59.016Z,3.60
2022-09-05T04:14:57.953Z,3.80
2022-09-05T04:17:42.677Z,4.57
2022-09-05T04:20:19.278Z,3.80
2022-09-05T04:23:05.046Z,3.70
2022-09-05T04:25:37.975Z,4.40
2022-09-05T04:28:48.672Z,3.63
2022-09-05T04:31:47.178Z,4.07
2022-09-05T04:34:34.181Z,3.92
2022-09-05T04:37:03.943Z,3.95
2022-09-05T04:39:32.226Z,3.58
2022-09-05T04:42:01.407Z,4.27
2022-09-05T04:47:03.000Z,3.88
2022-09-05T04:49:38.107Z,4.00
2022-09-05T04:52:33.630Z,4.57
2022-09-05T04:55:10.621Z,4.18
2022-09-05T04:57:40.095Z,4.25
2022-09-05T05:03:12.948Z,4.88
2022-09-05T05:06:02.739Z,4.85
2022-09-05T05:06:13.727Z,4.45
2022-09-05T05:08:55.307Z,4.28
2022-09-05T05:17:59.128Z,4.50
2022-09-05T05:18:09.259Z,4.50
2022-09-05T05:18:53.379Z,4.32
2022-09-05T05:21:09.616Z,4.00
2022-09-05T05:23:40.907Z,4.88
2022-09-05T05:26:12.780Z,5.30
2022-09-05T05:29:04.427Z,4.22
2022-09-05T05:31:34.288Z,4.88
2022-09-05T05:34:24.686Z,4.30
2022-09-05T05:37:00.656Z,4.30
2022-09-05T05:39:29.982Z,4.35
2022-09-05T05:41:58.595Z,4.93
2022-09-05T05:44:36.682Z,4.28
2022-09-05T05:47:08.651Z,4.70
2022-09-05T05:49:41.008Z,4.93
2022-09-05T05:52:38.462Z,4.75
2022-09-05T05:55:52.456Z,5.05
2022-09-05T05:58:25.060Z,4.20
2022-09-05T06:01:38.140Z,4.93
2022-09-05T06:04:44.978Z,4.95
2022-09-05T06:09:05.685Z,4.50
2022-09-05T06:14:49.019Z,5.03
2022-09-05T06:15:08.975Z,5.15
2022-09-05T06:16:39.513Z,4.45
2022-09-05T06:19:49.764Z,4.25
2022-09-05T06:22:32.713Z,4.68
2022-09-05T06:25:33.387Z,4.97
2022-09-05T06:28:26.078Z,4.55
2022-09-05T06:31:28.987Z,4.75
2022-09-05T06:34:32.982Z,5.13
2022-09-05T06:37:30.156Z,4.20
2022-09-05T06:40:28.080Z,4.32
2022-09-05T06:43:04.135Z,4.82
2022-09-05T06:45:58.972Z,4.25
2022-09-05T06:49:28.399Z,4.65
2022-09-05T06:51:45.231Z,4.28
2022-09-05T06:54:38.837Z,4.15
2022-09-05T06:57:51.005Z,4.28
2022-09-05T07:00:38.096Z,4.50
2022-09-05T07:03:33.039Z,3.80
2022-09-05T07:06:07.527Z,4.25
2022-09-05T07:08:54.039Z,3.60
2022-09-05T07:12:09.201Z,3.75
2022-09-05T07:14:53.332Z,3.20
2022-09-05T07:18:10.899Z,3.03
2022-09-05T07:21:18.228Z,2.53
2022-09-05T07:24:09.159Z,3.20
2022-09-05T07:26:54.714Z,2.97
2022-09-05T07:29:53.278Z,3.45
2022-09-05T07:32:31.483Z,2.65
2022-09-05T07:35:01.499Z,2.90
2022-09-05T07:37:41.679Z,2.80
2022-09-05T07:40:26.245Z,3.58
2022-09-05T07:43:09.348Z,3.05
2022-09-05T07:45:55.594Z,3.25
2022-09-05T07:48:35.174Z,3.20
2022-09-05T07:56:55.052Z,3.35
2022-09-05T07:56:56.830Z,3.33
2022-09-05T07:59:47.024Z,3.53
2022-09-05T08:02:13.813Z,3.10
2022-09-05T08:04:42.052Z,2.40
2022-09-05T08:07:49.591Z,3.13
2022-09-05T08:10:31.088Z,2.72
2022-09-05T08:13:24.608Z,2.58
2022-09-05T08:16:10.269Z,2.40
2022-09-05T08:18:50.237Z,2.28
2022-09-05T08:21:30.364Z,2.80
2022-09-05T08:24:25.960Z,2.58
2022-09-05T08:27:17.048Z,3.45
2022-09-05T08:30:24.473Z,2.22
2022-09-05T08:33:10.725Z,2.20
2022-09-05T08:35:53.026Z,2.30
2022-09-05T08:38:37.427Z,1.90
2022-09-05T08:41:15.602Z,1.98
2022-09-05T08:46:42.113Z,1.85
2022-09-05T08:47:07.960Z,2.60
2022-09-05T08:49:54.888Z,2.55
2022-09-05T08:52:38.212Z,2.28
2022-09-05T08:55:27.694Z,2.65
2022-09-05T08:58:14.517Z,1.98
2022-09-05T09:00:55.726Z,2.45
2022-09-05T09:03:57.601Z,2.25
2022-09-05T09:06:39.892Z,2.40
2022-09-05T09:09:34.492Z,2.72
2022-09-05T09:12:14.673Z,2.35
2022-09-05T09:15:06.494Z,2.42
2022-09-05T09:17:45.430Z,2.30
2022-09-05T09:23:32.051Z,2.17
2022-09-05T09:26:05.127Z,2.00
2022-09-05T09:28:50.896Z,1.98
2022-09-05T09:31:32.104Z,1.92
2022-09-05T09:34:14.273Z,2.92
2022-09-05T09:37:09.074Z,1.63
2022-09-05T09:39:56.815Z,3.65
2022-09-05T09:42:55.179Z,2.85
2022-09-05T09:45:29.710Z,2.40
2022-09-05T09:48:22.547Z,2.20
2022-09-05T09:51:04.748Z,1.90
2022-09-05T09:54:00.649Z,2.58
2022-09-05T09:56:45.903Z,3.03
2022-09-05T09:59:55.342Z,2.38
2022-09-05T10:04:31.010Z,3.00
2022-09-05T10:10:44.036Z,12.60
2022-09-05T10:10:46.169Z,3.17
2022-09-05T10:12:00.969Z,2.42
2022-09-05T10:14:51.865Z,2.90
2022-09-05T10:17:30.818Z,2.50
2022-09-05T10:20:09.132Z,2.33
2022-09-05T10:22:42.204Z,2.17
2022-09-05T10:25:12.195Z,2.40
2022-09-05T10:28:05.902Z,1.98
2022-09-05T10:33:06.653Z,2.08
2022-09-05T10:35:18.140Z,2.38
2022-09-05T10:39:41.706Z,2.10
2022-09-05T10:42:17.977Z,2.95
2022-09-05T10:44:57.990Z,2.55
2022-09-05T10:47:35.881Z,3.33
2022-09-05T10:50:06.935Z,2.85
2022-09-05T10:52:59.257Z,3.00
2022-09-05T10:55:52.154Z,2.47
2022-09-05T11:00:47.800Z,1.80
2022-09-05T11:02:29.326Z,2.42
2022-09-05T11:05:04.994Z,2.08
2022-09-05T11:07:42.177Z,2.20
2022-09-05T11:10:27.124Z,2.40
2022-09-05T11:13:11.090Z,1.80
2022-09-05T11:16:03.499Z,2.42
2022-09-05T11:18:55.421Z,1.85
2022-09-05T11:21:41.210Z,2.28
2022-09-05T11:24:16.764Z,1.90
2022-09-05T11:27:23.788Z,1.92
2022-09-05T11:29:46.246Z,2.78
2022-09-05T11:36:06.929Z,2.90
2022-09-05T11:39:48.632Z,2.70
2022-09-05T11:40:09.797Z,3.15
2022-09-05T11:41:27.282Z,2.90
2022-09-05T11:44:14.730Z,2.08
2022-09-05T11:47:27.989Z,2.45
2022-09-05T11:50:13.282Z,2.60
2022-09-05T11:53:04.409Z,2.15
2022-09-05T11:55:49.375Z,2.28
2022-09-05T11:58:45.158Z,2.38
2022-09-05T12:01:42.123Z,2.53
2022-09-05T12:04:17.140Z,2.50
2022-09-05T12:07:02.128Z,2.83
2022-09-05T12:09:34.805Z,2.85
2022-09-05T12:12:39.115Z,2.63
2022-09-05T12:15:24.905Z,2.85
2022-09-05T12:21:23.770Z,2.47
2022-09-05T12:25:15.781Z,1.95
2022-09-05T12:27:40.234Z,2.25
2022-09-05T12:29:59.592Z,2.30
2022-09-05T12:33:52.288Z,2.42
2022-09-05T12:36:13.057Z,2.63
2022-09-05T12:40:54.064Z,2.53
2022-09-05T12:41:41.300Z,2.70
2022-09-05T12:41:44.714Z,2.38
2022-09-05T12:44:50.662Z,2.65
2022-09-05T12:47:23.135Z,1.85
2022-09-05T12:50:02.671Z,2.70
2022-09-05T12:52:34.013Z,2.15
2022-09-05T12:55:09.352Z,2.22
2022-09-05T12:59:15.049Z,1.95
2022-09-05T13:03:07.542Z,2.42
2022-09-05T13:03:32.023Z,2.95
2022-09-05T13:06:08.716Z,2.40
2022-09-05T13:08:59.639Z,2.70
2022-09-05T13:14:49.162Z,1.90
2022-09-05T13:15:01.158Z,2.42
2022-09-05T13:17:13.950Z,2.33
2022-09-05T13:19:51.200Z,2.00
2022-09-05T13:22:24.384Z,2.35
2022-09-05T13:25:04.932Z,2.45
2022-09-05T13:27:39.543Z,2.33
2022-09-05T13:34:29.442Z,2.40
2022-09-05T13:38:13.580Z,2.17
2022-09-05T13:38:19.334Z,1.90
2022-09-05T13:39:23.018Z,2.90
2022-09-05T13:41:56.774Z,2.65
2022-09-05T13:44:27.601Z,2.55
2022-09-05T13:47:06.317Z,2.33
2022-09-05T13:50:22.410Z,2.88
2022-09-05T13:53:04.901Z,2.35
2022-09-05T13:55:43.477Z,2.85
2022-09-05T13:58:26.042Z,2.60
2022-09-05T14:01:01.585Z,2.53
2022-09-05T14:03:55.639Z,2.65
2022-09-05T14:06:47.655Z,2.53
2022-09-05T14:09:39.796Z,2.70
2022-09-05T14:12:11.704Z,2.92
2022-09-05T14:18:20.511Z,2.30
2022-09-05T14:21:17.831Z,2.28
2022-09-05T14:24:03.137Z,2.30
2022-09-05T14:26:45.607Z,2.80
2022-09-05T14:29:32.624Z,2.75
2022-09-05T14:37:37.099Z,2.50
2022-09-05T14:37:43.109Z,2.53
2022-09-05T14:38:07.868Z,2.70
2022-09-05T14:41:15.157Z,2.45
2022-09-05T14:43:44.822Z,2.58
2022-09-05T14:46:49.754Z,2.70
2022-09-05T14:49:55.883Z,3.30
2022-09-05T14:52:29.153Z,2.50
2022-09-05T15:02:52.606Z,2.53
2022-09-05T15:02:53.582Z,2.70
2022-09-05T15:06:37.088Z,2.47
2022-09-05T15:11:26.296Z,2.92
2022-09-05T15:12:21.984Z,2.72
2022-09-05T15:15:00.539Z,2.67
2022-09-05T15:17:29.004Z,2.40
2022-09-05T15:20:06.187Z,2.88
2022-09-05T15:22:41.934Z,2.80
2022-09-05T15:25:17.159Z,2.90
2022-09-05T15:27:46.192Z,2.70
2022-09-05T15:30:35.710Z,2.70
2022-09-05T15:33:26.357Z,3.05
2022-09-05T15:35:53.093Z,3.30
2022-09-05T15:38:26.196Z,2.83
2022-09-05T15:41:15.145Z,3.63
2022-09-05T15:46:49.261Z,3.58
2022-09-05T15:49:40.718Z,3.28
2022-09-05T15:52:16.212Z,3.13
2022-09-05T15:54:52.917Z,2.97
2022-09-05T15:57:24.146Z,3.22
2022-09-05T15:59:58.378Z,3.50
2022-09-05T16:02:28.252Z,3.63
2022-09-05T16:10:35.846Z,3.90
2022-09-05T16:10:47.147Z,3.47
2022-09-05T16:12:03.466Z,2.65
2022-09-05T16:14:28.924Z,3.55
2022-09-05T16:23:16.884Z,3.90
2022-09-05T16:23:27.597Z,3.05
2022-09-05T16:23:42.684Z,2.75
2022-09-05T16:26:11.977Z,3.47
2022-09-05T16:28:54.085Z,4.40
2022-09-05T16:31:26.005Z,3.63
2022-09-05T16:33:54.452Z,4.85
2022-09-05T16:36:27.306Z,4.18
2022-09-05T16:39:01.249Z,7.60
2022-09-05T16:41:27.736Z,8.23
2022-09-05T16:44:00.590Z,10.55
2022-09-05T16:46:44.314Z,7.05
2022-09-05T16:49:16.582Z,4.95
2022-09-05T16:52:00.757Z,4.57
2022-09-05T16:54:39.718Z,7.97
2022-09-05T16:59:41.536Z,3.30
2022-09-05T17:02:21.733Z,3.63
2022-09-05T17:05:05.708Z,3.30
2022-09-05T17:07:42.127Z,3.10
2022-09-05T17:10:12.070Z,3.22
2022-09-05T17:12:40.522Z,3.63
2022-09-05T17:15:26.280Z,2.63
2022-09-05T17:18:21.513Z,3.17
2022-09-05T17:20:55.681Z,3.15
2022-09-05T17:29:15.848Z,3.20
2022-09-05T17:29:20.567Z,3.35
2022-09-05T17:32:51.503Z,3.67
2022-09-05T17:35:42.545Z,3.28
2022-09-05T17:38:20.724Z,2.95
2022-09-05T17:41:04.580Z,3.63
2022-09-05T17:56:13.573Z,3.75
2022-09-05T17:59:01.363Z,3.70
2022-09-05T18:01:28.944Z,3.50
2022-09-05T18:04:16.556Z,3.70
2022-09-05T18:06:52.854Z,3.53
2022-09-05T18:15:27.441Z,3.20
2022-09-05T18:17:53.985Z,3.47
2022-09-05T18:20:28.031Z,3.60
2022-09-05T18:26:14.427Z,3.22
2022-09-05T18:28:48.406Z,3.60
2022-09-05T18:31:43.535Z,3.40
2022-09-05T18:34:16.334Z,3.78
2022-09-05T18:36:55.890Z,3.83
2022-09-05T18:39:29.500Z,4.05
2022-09-05T18:42:25.644Z,3.58
2022-09-05T18:44:55.320Z,3.22
2022-09-05T18:47:33.673Z,3.58
2022-09-05T18:50:25.279Z,3.28
2022-09-05T18:53:05.646Z,3.15
2022-09-05T18:56:13.226Z,3.05
2022-09-05T18:58:30.513Z,3.70
2022-09-05T19:01:27.683Z,3.60
2022-09-05T19:03:59.775Z,3.45
2022-09-05T19:06:34.865Z,2.78
2022-09-05T19:09:10.366Z,3.53
2022-09-05T19:11:53.038Z,3.85
2022-09-05T19:14:53.554Z,3.65
2022-09-05T19:17:33.491Z,3.33
2022-09-05T19:20:31.633Z,3.47
2022-09-05T19:23:10.119Z,3.80
2022-09-05T19:25:44.694Z,2.88
2022-09-05T19:36:48.593Z,3.97
2022-09-05T19:36:48.763Z,3.10
2022-09-05T19:37:05.765Z,3.55
2022-09-05T19:37:29.363Z,3.35
2022-09-05T19:47:41.359Z,3.25
2022-09-05T19:47:44.520Z,3.05
2022-09-05T19:48:28.224Z,3.38
2022-09-05T19:51:16.120Z,3.17
2022-09-05T19:53:47.476Z,3.30
2022-09-05T19:56:15.661Z,3.78
2022-09-05T19:58:42.634Z,3.50
2022-09-05T20:01:15.227Z,3.90
2022-09-05T20:03:48.174Z,3.33
2022-09-05T20:06:29.094Z,3.90
2022-09-05T20:09:09.164Z,3.45
2022-09-05T20:11:37.409Z,3.60
2022-09-05T20:14:20.794Z,3.58
2022-09-05T20:16:49.671Z,3.55
2022-09-05T20:19:29.360Z,3.72
2022-09-05T20:22:12.813Z,3.72
2022-09-05T20:24:49.560Z,3.63
2022-09-05T20:27:17.146Z,3.75
2022-09-05T20:29:57.716Z,3.42
2022-09-05T20:32:39.533Z,4.10
2022-09-05T20:39:54.158Z,4.00
2022-09-05T20:43:20.998Z,3.45
2022-09-05T20:43:24.164Z,3.40
2022-09-05T20:43:52.822Z,3.35
2022-09-05T20:49:09.737Z,3.60
2022-09-05T20:54:12.601Z,3.28
2022-09-05T20:54:19.247Z,3.95
2022-09-05T20:55:42.127Z,3.65
2022-09-05T20:58:24.771Z,4.68
2022-09-05T21:01:21.436Z,3.67
2022-09-05T21:04:01.067Z,3.88
2022-09-05T21:06:36.266Z,3.88
2022-09-05T21:09:23.835Z,3.80
2022-09-05T21:11:53.312Z,4.47
2022-09-05T21:14:22.132Z,4.05
2022-09-05T21:16:58.390Z,3.45
2022-09-05T21:19:29.220Z,3.72
2022-09-05T21:22:17.410Z,3.80
2022-09-05T21:24:46.571Z,4.10
2022-09-05T21:29:42.282Z,3.65
2022-09-05T21:32:15.393Z,3.78
2022-09-05T21:34:49.030Z,3.78
2022-09-05T21:37:16.891Z,4.30
2022-09-05T21:40:00.164Z,4.70
2022-09-05T21:42:44.284Z,5.03
2022-09-05T21:47:44.088Z,4.20
2022-09-05T21:48:15.359Z,4.88
2022-09-05T21:50:50.693Z,4.32
2022-09-05T21:58:50.941Z,4.53
2022-09-05T21:59:24.252Z,3.88
2022-09-05T21:59:29.709Z,4.25
2022-09-05T22:01:54.294Z,4.00
2022-09-05T22:04:22.092Z,4.50
2022-09-05T22:06:49.749Z,3.78
2022-09-05T22:09:21.119Z,5.03
2022-09-05T22:11:51.346Z,4.55
2022-09-05T22:14:23.980Z,4.10
2022-09-05T22:16:54.924Z,4.18
2022-09-05T22:19:26.209Z,4.53
2022-09-05T22:22:17.185Z,4.30
2022-09-05T22:24:53.002Z,4.40
2022-09-05T22:27:20.698Z,4.22
2022-09-05T22:29:50.302Z,4.82
2022-09-05T22:32:18.183Z,4.22
2022-09-05T22:34:59.499Z,4.63
2022-09-05T22:37:26.827Z,4.78
2022-09-05T22:39:53.442Z,4.05
2022-09-05T22:42:20.169Z,4.50
2022-09-05T22:44:48.140Z,4.50
2022-09-05T22:47:14.709Z,4.65
2022-09-05T22:49:41.244Z,4.30
2022-09-05T22:52:09.632Z,4.40
2022-09-05T22:54:36.372Z,4.75
2022-09-05T22:57:04.287Z,4.40
2022-09-05T22:59:30.941Z,4.00
2022-09-05T23:01:57.529Z,4.63
2022-09-05T23:04:24.232Z,3.97
2022-09-05T23:06:50.775Z,4.45
2022-09-05T23:09:17.332Z,4.20
2022-09-05T23:11:44.149Z,4.70
2022-09-05T23:14:10.669Z,4.22
2022-09-05T23:16:37.150Z,3.92
2022-09-05T23:19:03.735Z,3.60
2022-09-05T23:21:30.839Z,3.95
2022-09-05T23:23:57.409Z,4.03
2022-09-05T23:26:23.986Z,3.83
2022-09-05T23:28:50.509Z,4.68
2022-09-05T23:31:17.109Z,3.75
2022-09-05T23:33:43.687Z,4.00
2022-09-05T23:36:13.860Z,4.43
2022-09-05T23:38:43.950Z,3.90
2022-09-05T23:41:12.977Z,4.68
2022-09-05T23:43:39.613Z,4.18
2022-09-05T23:46:06.980Z,4.22
2022-09-05T23:48:33.940Z,4.88
2022-09-05T23:51:09.350Z,4.70
2022-09-05T23:53:36.381Z,4.13
2022-09-05T23:56:04.754Z,3.95
2022-09-05T23:58:31.658Z,4.57
